createdAt,value
2019-01-30T00:01:17.878Z,-0.90
2019-01-30T00:03:45.235Z,-0.90
2019-01-30T00:06:12.230Z,-1.00
2019-01-30T00:08:39.410Z,-1.00
2019-01-30T00:11:06.552Z,-1.10
2019-01-30T00:13:33.374Z,-1.00
2019-01-30T00:16:00.281Z,-1.00
2019-01-30T00:18:27.457Z,-1.00
2019-01-30T00:20:54.646Z,-1.00
2019-01-30T00:23:21.536Z,-0.90
2019-01-30T00:25:48.462Z,-1.00
2019-01-30T00:28:15.605Z,-1.00
2019-01-30T00:30:42.777Z,-1.00
2019-01-30T00:33:09.845Z,-1.00
2019-01-30T00:35:36.702Z,-1.10
2019-01-30T00:38:03.705Z,-1.10
2019-01-30T00:40:30.616Z,-1.20
2019-01-30T00:42:57.419Z,-1.20
2019-01-30T00:45:24.714Z,-1.10
2019-01-30T00:47:51.515Z,-1.10
2019-01-30T00:50:18.543Z,-1.10
2019-01-30T00:52:45.528Z,-1.10
2019-01-30T00:55:13.849Z,-1.10
2019-01-30T00:57:40.892Z,-1.00
2019-01-30T01:00:14.559Z,-1.20
2019-01-30T01:02:40.750Z,-1.20
2019-01-30T01:05:07.855Z,-1.20
2019-01-30T01:07:34.937Z,-1.20
2019-01-30T01:10:03.410Z,-1.30
2019-01-30T01:12:30.557Z,-1.30
2019-01-30T01:14:57.619Z,-1.30
2019-01-30T01:17:24.924Z,-1.30
2019-01-30T01:19:51.820Z,-1.30
2019-01-30T01:22:18.837Z,-1.20
2019-01-30T01:24:45.728Z,-1.20
2019-01-30T01:27:12.884Z,-1.20
2019-01-30T01:29:39.900Z,-1.10
2019-01-30T01:32:06.921Z,-1.20
2019-01-30T01:34:33.972Z,-1.10
2019-01-30T01:37:00.884Z,-1.10
2019-01-30T01:39:28.666Z,-1.00
2019-01-30T01:41:55.862Z,-0.90
2019-01-30T01:44:22.774Z,-1.00
2019-01-30T01:46:53.140Z,-1.00
2019-01-30T01:49:20.045Z,-1.00
2019-01-30T01:51:47.145Z,-0.90
2019-01-30T01:54:14.053Z,-0.90
2019-01-30T01:56:41.069Z,-1.00
2019-01-30T01:59:08.212Z,-1.00
2019-01-30T02:01:37.460Z,-1.10
2019-01-30T02:04:04.503Z,-1.00
2019-01-30T02:06:31.404Z,-1.00
2019-01-30T02:08:58.473Z,-0.90
2019-01-30T02:11:25.505Z,-1.00
2019-01-30T02:13:52.640Z,-1.10
2019-01-30T02:16:19.709Z,-1.10
2019-01-30T02:18:46.609Z,-1.10
2019-01-30T02:21:13.789Z,-1.00
2019-01-30T02:23:40.690Z,-1.10
2019-01-30T02:26:07.686Z,-1.00
2019-01-30T02:28:34.505Z,-1.10
2019-01-30T02:31:01.515Z,-1.20
2019-01-30T02:33:28.560Z,-1.20
2019-01-30T02:35:55.720Z,-1.10
2019-01-30T02:38:22.781Z,-1.10
2019-01-30T02:40:49.591Z,-1.10
2019-01-30T02:43:16.400Z,-1.10
2019-01-30T02:45:43.396Z,-1.20
2019-01-30T02:48:10.414Z,-1.20
2019-01-30T02:50:37.309Z,-1.30
2019-01-30T02:53:04.318Z,-1.30
2019-01-30T02:55:31.129Z,-1.30
2019-01-30T02:57:58.381Z,-1.30
2019-01-30T03:00:27.223Z,-1.40
2019-01-30T03:02:54.237Z,-1.30
2019-01-30T03:05:21.244Z,-1.30
2019-01-30T03:07:48.251Z,-1.30
2019-01-30T03:10:16.393Z,-1.40
2019-01-30T03:12:43.550Z,-1.50
2019-01-30T03:15:11.169Z,-1.50
2019-01-30T03:17:38.092Z,-1.50
2019-01-30T03:20:07.029Z,-1.50
2019-01-30T03:22:34.310Z,-1.50
2019-01-30T03:25:01.313Z,-1.50
2019-01-30T03:27:28.358Z,-1.60
2019-01-30T03:29:55.173Z,-1.50
2019-01-30T03:32:22.074Z,-1.50
2019-01-30T03:34:48.901Z,-1.50
2019-01-30T03:37:15.949Z,-1.50
2019-01-30T03:39:43.053Z,-1.60
2019-01-30T03:42:09.850Z,-1.50
2019-01-30T03:44:36.762Z,-1.50
2019-01-30T03:47:03.758Z,-1.50
2019-01-30T03:49:30.663Z,-1.60
2019-01-30T03:51:57.831Z,-1.70
2019-01-30T03:54:24.743Z,-1.70
2019-01-30T03:56:52.052Z,-1.70
2019-01-30T03:59:19.118Z,-1.70
2019-01-30T04:01:46.158Z,-1.70
2019-01-30T04:04:13.067Z,-1.60
2019-01-30T04:06:39.961Z,-1.60
2019-01-30T04:09:07.052Z,-1.50
2019-01-30T04:11:34.211Z,-1.50
2019-01-30T04:14:01.130Z,-1.50
2019-01-30T04:16:28.025Z,-1.50
2019-01-30T04:18:55.329Z,-1.40
2019-01-30T04:21:22.419Z,-1.40
2019-01-30T04:23:49.489Z,-1.40
2019-01-30T04:26:16.287Z,-1.40
2019-01-30T04:28:43.085Z,-1.40
2019-01-30T04:31:10.103Z,-1.50
2019-01-30T04:33:37.185Z,-1.50
2019-01-30T04:36:04.449Z,-1.40
2019-01-30T04:38:31.252Z,-1.50
2019-01-30T04:40:58.409Z,-1.50
2019-01-30T04:43:25.418Z,-1.50
2019-01-30T04:45:52.225Z,-1.50
2019-01-30T04:48:19.368Z,-1.50
2019-01-30T04:50:46.283Z,-1.50
2019-01-30T04:53:13.473Z,-1.40
2019-01-30T04:55:40.485Z,-1.30
2019-01-30T04:58:07.409Z,-1.30
2019-01-30T05:00:34.415Z,-1.30
2019-01-30T05:03:01.313Z,-1.30
2019-01-30T05:05:28.490Z,-1.40
2019-01-30T05:07:55.390Z,-1.40
2019-01-30T05:10:22.845Z,-1.40
2019-01-30T05:12:49.853Z,-1.30
2019-01-30T05:15:17.792Z,-1.20
2019-01-30T05:17:44.802Z,-1.20
2019-01-30T05:20:13.191Z,-1.20
2019-01-30T05:22:40.274Z,-1.10
2019-01-30T05:25:07.674Z,-1.00
2019-01-30T05:27:34.732Z,-1.00
2019-01-30T05:30:01.733Z,-1.10
2019-01-30T05:32:28.801Z,-1.10
2019-01-30T05:34:55.609Z,-1.10
2019-01-30T05:37:22.489Z,-1.20
2019-01-30T05:39:49.569Z,-1.30
2019-01-30T05:42:16.491Z,-1.20
2019-01-30T05:44:43.289Z,-1.30
2019-01-30T05:47:10.193Z,-1.40
2019-01-30T05:49:37.233Z,-1.30
2019-01-30T05:52:04.253Z,-1.20
2019-01-30T05:54:31.318Z,-1.20
2019-01-30T05:56:58.362Z,-1.10
2019-01-30T05:59:25.166Z,-0.90
2019-01-30T06:01:52.218Z,-0.80
2019-01-30T06:04:19.116Z,-0.90
2019-01-30T06:06:46.059Z,-0.90
2019-01-30T06:09:12.929Z,-0.90
2019-01-30T06:11:40.210Z,-0.80
2019-01-30T06:14:07.122Z,-0.80
2019-01-30T06:16:33.929Z,-0.80
2019-01-30T06:19:00.846Z,-0.80
2019-01-30T06:21:27.636Z,-0.90
2019-01-30T06:23:54.656Z,-0.80
2019-01-30T06:26:21.560Z,-0.80
2019-01-30T06:28:48.380Z,-0.70
2019-01-30T06:31:15.399Z,-0.70
2019-01-30T06:33:42.454Z,-0.80
2019-01-30T06:36:09.368Z,-0.80
2019-01-30T06:38:36.562Z,-0.90
2019-01-30T06:41:03.548Z,-1.10
2019-01-30T06:43:30.461Z,-1.20
2019-01-30T06:45:57.262Z,-1.10
2019-01-30T06:48:24.170Z,-1.20
2019-01-30T06:50:51.412Z,-1.10
2019-01-30T06:53:18.217Z,-1.20
2019-01-30T06:55:45.230Z,-1.20
2019-01-30T06:58:12.245Z,-1.10
2019-01-30T07:00:39.146Z,-1.10
2019-01-30T07:03:06.493Z,-1.10
2019-01-30T07:05:33.307Z,-1.20
2019-01-30T07:08:00.378Z,-1.20
2019-01-30T07:10:27.812Z,-1.20
2019-01-30T07:12:55.266Z,-1.30
2019-01-30T07:15:22.505Z,-1.30
2019-01-30T07:17:49.534Z,-1.10
2019-01-30T07:20:16.809Z,-0.90
2019-01-30T07:22:44.052Z,-0.80
2019-01-30T07:25:12.834Z,-0.70
2019-01-30T07:27:39.641Z,-0.90
2019-01-30T07:30:11.334Z,-0.90
2019-01-30T07:32:42.224Z,-0.80
2019-01-30T07:35:07.166Z,-0.80
2019-01-30T07:37:34.081Z,-0.90
2019-01-30T07:40:00.901Z,-1.00
2019-01-30T07:42:27.994Z,-1.00
2019-01-30T07:44:54.913Z,-1.00
2019-01-30T07:47:21.704Z,-1.00
2019-01-30T07:49:48.512Z,-1.00
2019-01-30T07:52:15.505Z,-1.10
2019-01-30T07:54:42.410Z,-1.00
2019-01-30T07:57:09.578Z,-1.10
2019-01-30T07:59:36.726Z,-1.10
2019-01-30T08:02:03.742Z,-1.10
2019-01-30T08:04:30.795Z,-1.10
2019-01-30T08:06:57.613Z,-1.10
2019-01-30T08:09:24.417Z,-1.00
2019-01-30T08:11:51.582Z,-1.00
2019-01-30T08:14:18.829Z,-1.00
2019-01-30T08:16:47.975Z,-1.00
2019-01-30T08:19:14.699Z,-1.00
2019-01-30T08:21:41.818Z,-1.00
2019-01-30T08:24:08.893Z,-1.00
2019-01-30T08:26:36.107Z,-0.90
2019-01-30T08:29:03.430Z,-0.80
2019-01-30T08:31:30.396Z,-0.80
2019-01-30T08:33:57.446Z,-0.80
2019-01-30T08:36:24.486Z,-0.80
2019-01-30T08:38:51.556Z,-0.80
2019-01-30T08:41:18.793Z,-0.90
2019-01-30T08:43:45.947Z,-0.90
2019-01-30T08:46:13.122Z,-0.90
2019-01-30T08:48:40.031Z,-1.00
2019-01-30T08:51:07.017Z,-0.90
2019-01-30T08:53:33.924Z,-0.80
2019-01-30T08:56:00.829Z,-0.80
2019-01-30T08:58:27.989Z,-0.70
2019-01-30T09:00:55.426Z,-0.70
2019-01-30T09:03:22.333Z,-0.70
2019-01-30T09:05:49.947Z,-0.50
2019-01-30T09:08:17.026Z,-0.70
2019-01-30T09:10:44.020Z,-0.70
2019-01-30T09:13:10.829Z,-0.60
2019-01-30T09:15:37.868Z,-0.50
2019-01-30T09:18:05.193Z,-0.50
2019-01-30T09:20:31.996Z,-0.30
2019-01-30T09:22:59.073Z,-0.30
2019-01-30T09:25:27.689Z,-0.30
2019-01-30T09:27:54.797Z,-0.20
2019-01-30T09:30:32.785Z,-0.20
2019-01-30T09:32:59.840Z,-0.20
2019-01-30T09:35:27.252Z,0.00
2019-01-30T09:37:55.236Z,0.00
2019-01-30T09:40:22.625Z,0.10
2019-01-30T09:42:50.130Z,0.10
2019-01-30T09:45:17.421Z,0.10
2019-01-30T09:47:44.427Z,0.10
2019-01-30T09:50:13.854Z,0.10
2019-01-30T09:52:40.753Z,0.00
2019-01-30T09:55:08.913Z,0.00
2019-01-30T09:57:35.821Z,0.00
2019-01-30T10:00:04.509Z,0.10
2019-01-30T10:02:31.301Z,0.10
2019-01-30T10:04:58.105Z,0.10
2019-01-30T10:07:25.258Z,0.10
2019-01-30T10:09:52.173Z,0.10
2019-01-30T10:12:18.972Z,0.10
2019-01-30T10:14:45.886Z,0.20
2019-01-30T10:17:13.042Z,0.20
2019-01-30T10:19:41.817Z,0.30
2019-01-30T10:22:09.205Z,0.40
2019-01-30T10:24:36.015Z,0.60
2019-01-30T10:27:03.014Z,0.60
2019-01-30T10:29:29.826Z,0.70
2019-01-30T10:31:57.669Z,0.80
2019-01-30T10:34:24.480Z,0.80
2019-01-30T10:36:51.404Z,0.90
2019-01-30T10:39:18.296Z,0.90
2019-01-30T10:41:45.110Z,1.00
2019-01-30T10:44:11.917Z,1.00
2019-01-30T10:46:38.730Z,1.10
2019-01-30T10:49:05.725Z,1.10
2019-01-30T10:51:32.737Z,1.20
2019-01-30T10:53:59.893Z,1.30
2019-01-30T10:56:26.805Z,1.40
2019-01-30T10:58:53.613Z,1.40
2019-01-30T11:01:20.893Z,1.40
2019-01-30T11:03:57.084Z,1.40
2019-01-30T11:06:16.521Z,1.50
2019-01-30T11:08:43.327Z,1.60
2019-01-30T11:11:10.240Z,1.60
2019-01-30T11:13:37.405Z,1.80
2019-01-30T11:16:04.526Z,1.80
2019-01-30T11:18:31.894Z,1.90
2019-01-30T11:20:58.818Z,1.90
2019-01-30T11:23:25.833Z,1.90
2019-01-30T11:25:52.827Z,1.80
2019-01-30T11:28:19.779Z,1.80
2019-01-30T11:30:46.785Z,1.90
2019-01-30T11:33:13.954Z,1.90
2019-01-30T11:35:40.871Z,1.90
2019-01-30T11:38:09.004Z,1.90
2019-01-30T11:40:36.349Z,2.00
2019-01-30T11:43:03.629Z,2.00
2019-01-30T11:45:33.146Z,2.00
2019-01-30T11:48:00.193Z,1.90
2019-01-30T11:50:27.226Z,2.00
2019-01-30T11:52:54.393Z,1.90
2019-01-30T11:55:21.406Z,2.00
2019-01-30T11:57:48.327Z,1.90
2019-01-30T12:00:23.670Z,2.00
2019-01-30T12:02:50.713Z,2.00
2019-01-30T12:05:17.980Z,2.10
2019-01-30T12:07:45.236Z,2.10
2019-01-30T12:10:12.703Z,2.10
2019-01-30T12:12:39.915Z,2.10
2019-01-30T12:15:10.221Z,2.10
2019-01-30T12:17:37.206Z,2.20
2019-01-30T12:20:06.477Z,2.30
2019-01-30T12:22:33.396Z,2.30
2019-01-30T12:25:00.249Z,2.40
2019-01-30T12:27:27.157Z,2.40
2019-01-30T12:29:54.330Z,2.50
2019-01-30T12:32:21.440Z,2.40
2019-01-30T12:34:48.370Z,2.50
2019-01-30T12:37:15.173Z,2.50
2019-01-30T12:39:42.185Z,2.50
2019-01-30T12:42:09.090Z,2.50
2019-01-30T12:44:35.999Z,2.50
2019-01-30T12:47:02.917Z,2.50
2019-01-30T12:49:29.736Z,2.50
2019-01-30T12:51:56.538Z,2.50
2019-01-30T12:54:23.556Z,2.60
2019-01-30T12:56:50.708Z,2.60
2019-01-30T12:59:17.512Z,2.60
2019-01-30T13:01:44.560Z,2.70
2019-01-30T13:04:11.480Z,2.70
2019-01-30T13:06:38.716Z,2.80
2019-01-30T13:09:07.774Z,2.80
2019-01-30T13:11:34.772Z,2.80
2019-01-30T13:14:01.685Z,2.80
2019-01-30T13:16:28.755Z,2.80
2019-01-30T13:18:55.958Z,2.80
2019-01-30T13:21:23.029Z,2.90
2019-01-30T13:23:50.048Z,2.90
2019-01-30T13:26:17.414Z,3.00
2019-01-30T13:28:44.480Z,3.10
2019-01-30T13:31:11.440Z,3.10
2019-01-30T13:33:38.442Z,3.20
2019-01-30T13:36:06.860Z,3.20
2019-01-30T13:38:34.006Z,3.20
2019-01-30T13:41:01.166Z,3.20
2019-01-30T13:43:27.966Z,3.10
2019-01-30T13:46:05.008Z,3.10
2019-01-30T13:48:23.784Z,3.10
2019-01-30T13:50:50.937Z,3.10
2019-01-30T13:53:17.939Z,3.10
2019-01-30T13:55:45.217Z,3.10
2019-01-30T13:58:12.022Z,2.90
2019-01-30T14:00:39.133Z,2.90
2019-01-30T14:03:06.917Z,2.80
2019-01-30T14:05:33.996Z,2.80
2019-01-30T14:08:02.934Z,2.80
2019-01-30T14:10:30.452Z,2.90
2019-01-30T14:12:57.618Z,2.80
2019-01-30T14:15:25.190Z,2.70
2019-01-30T14:17:52.189Z,2.60
2019-01-30T14:20:19.641Z,2.50
2019-01-30T14:22:46.854Z,2.50
2019-01-30T14:25:14.291Z,2.60
2019-01-30T14:27:41.309Z,2.50
2019-01-30T14:30:18.743Z,2.50
2019-01-30T14:32:45.789Z,2.60
2019-01-30T14:35:12.864Z,2.60
2019-01-30T14:37:39.825Z,2.60
2019-01-30T14:40:08.169Z,2.60
2019-01-30T14:42:36.980Z,2.50
2019-01-30T14:45:05.364Z,2.40
2019-01-30T14:47:32.731Z,2.40
2019-01-30T14:50:00.147Z,2.30
2019-01-30T14:52:27.174Z,2.30
2019-01-30T14:54:54.049Z,2.40
2019-01-30T14:57:21.106Z,2.20
2019-01-30T14:59:49.590Z,2.20
2019-01-30T15:02:16.603Z,2.20
2019-01-30T15:04:43.843Z,2.20
2019-01-30T15:07:10.881Z,2.20
2019-01-30T15:09:38.080Z,2.20
2019-01-30T15:12:05.480Z,2.10
2019-01-30T15:14:32.364Z,2.10
2019-01-30T15:16:59.241Z,2.00
2019-01-30T15:19:26.173Z,2.00
2019-01-30T15:21:53.161Z,2.00
2019-01-30T15:24:20.089Z,2.10
2019-01-30T15:26:47.166Z,2.10
2019-01-30T15:29:14.129Z,2.20
2019-01-30T15:31:41.558Z,2.30
2019-01-30T15:34:08.620Z,2.30
2019-01-30T15:36:35.633Z,2.40
2019-01-30T15:39:06.461Z,2.50
2019-01-30T15:41:33.258Z,2.40
2019-01-30T15:44:00.066Z,2.50
2019-01-30T15:46:26.859Z,2.50
2019-01-30T15:48:53.666Z,2.50
2019-01-30T15:51:20.606Z,2.50
2019-01-30T15:53:47.426Z,2.60
2019-01-30T15:56:14.316Z,2.40
2019-01-30T15:58:41.468Z,2.40
2019-01-30T16:01:19.497Z,2.40
2019-01-30T16:03:46.306Z,2.40
2019-01-30T16:06:13.091Z,2.40
2019-01-30T16:08:40.277Z,2.40
2019-01-30T16:11:07.280Z,2.40
2019-01-30T16:13:34.097Z,2.40
2019-01-30T16:16:02.725Z,2.40
2019-01-30T16:18:29.790Z,2.40
2019-01-30T16:20:56.810Z,2.40
2019-01-30T16:23:23.965Z,2.40
2019-01-30T16:25:50.985Z,2.40
2019-01-30T16:28:17.890Z,2.30
2019-01-30T16:30:44.804Z,2.30
2019-01-30T16:33:11.969Z,2.30
2019-01-30T16:35:39.127Z,2.30
2019-01-30T16:38:06.933Z,2.40
2019-01-30T16:40:33.950Z,2.20
2019-01-30T16:43:00.842Z,2.20
2019-01-30T16:45:27.962Z,2.30
2019-01-30T16:47:55.300Z,2.20
2019-01-30T16:50:22.313Z,2.30
2019-01-30T16:52:49.317Z,2.30
2019-01-30T16:55:16.659Z,2.20
2019-01-30T16:57:43.949Z,2.20
2019-01-30T17:00:17.145Z,2.20
2019-01-30T17:02:44.145Z,2.20
2019-01-30T17:05:12.251Z,2.20
2019-01-30T17:07:39.153Z,2.10
2019-01-30T17:10:07.549Z,2.20
2019-01-30T17:12:34.456Z,2.30
2019-01-30T17:15:01.517Z,2.30
2019-01-30T17:17:28.456Z,2.40
2019-01-30T17:19:55.370Z,2.40
2019-01-30T17:22:22.301Z,2.30
2019-01-30T17:24:49.354Z,2.30
2019-01-30T17:27:16.494Z,2.30
2019-01-30T17:29:43.553Z,2.30
2019-01-30T17:32:10.718Z,2.20
2019-01-30T17:34:37.766Z,2.20
2019-01-30T17:37:04.798Z,2.20
2019-01-30T17:39:32.094Z,2.10
2019-01-30T17:41:58.922Z,2.10
2019-01-30T17:44:25.820Z,2.10
2019-01-30T17:46:52.837Z,2.20
2019-01-30T17:49:20.808Z,2.10
2019-01-30T17:51:47.702Z,2.00
2019-01-30T17:54:14.750Z,2.10
2019-01-30T17:56:42.085Z,2.10
2019-01-30T17:59:08.972Z,2.10
2019-01-30T18:01:36.317Z,2.10
2019-01-30T18:04:03.879Z,2.10
2019-01-30T18:06:30.874Z,2.00
2019-01-30T18:08:57.777Z,2.10
2019-01-30T18:11:24.765Z,2.00
2019-01-30T18:13:51.947Z,2.00
2019-01-30T18:16:19.275Z,2.00
2019-01-30T18:18:46.186Z,2.00
2019-01-30T18:21:13.286Z,2.10
2019-01-30T18:23:40.253Z,2.10
2019-01-30T18:26:07.307Z,2.10
2019-01-30T18:28:34.130Z,2.10
2019-01-30T18:31:01.193Z,2.00
2019-01-30T18:33:28.007Z,2.10
2019-01-30T18:35:56.136Z,2.00
2019-01-30T18:38:23.050Z,2.00
2019-01-30T18:40:49.950Z,2.00
2019-01-30T18:43:16.761Z,2.00
2019-01-30T18:45:43.919Z,2.00
2019-01-30T18:48:11.018Z,2.10
2019-01-30T18:50:37.913Z,2.10
2019-01-30T18:53:05.023Z,2.10
2019-01-30T18:55:32.054Z,2.10
2019-01-30T18:57:59.097Z,2.10
2019-01-30T19:00:31.372Z,2.10
2019-01-30T19:02:59.952Z,2.10
2019-01-30T19:05:27.753Z,2.00
2019-01-30T19:07:54.900Z,2.10
2019-01-30T19:10:21.726Z,2.10
2019-01-30T19:12:48.954Z,2.00
2019-01-30T19:15:17.619Z,2.10
2019-01-30T19:17:44.608Z,2.00
2019-01-30T19:20:14.821Z,2.00
2019-01-30T19:22:41.717Z,2.00
2019-01-30T19:25:08.997Z,1.90
2019-01-30T19:27:35.891Z,1.90
2019-01-30T19:30:04.806Z,1.80
2019-01-30T19:32:31.606Z,1.80
2019-01-30T19:34:58.520Z,1.80
2019-01-30T19:37:25.573Z,1.70
2019-01-30T19:39:52.389Z,1.80
2019-01-30T19:42:19.188Z,1.80
2019-01-30T19:44:46.000Z,1.80
2019-01-30T19:47:13.253Z,1.70
2019-01-30T19:49:40.327Z,1.70
2019-01-30T19:52:07.354Z,1.80
2019-01-30T19:54:34.512Z,1.90
2019-01-30T19:57:01.580Z,1.90
2019-01-30T19:59:28.377Z,1.80
2019-01-30T20:01:55.452Z,1.80
2019-01-30T20:04:22.453Z,1.80
2019-01-30T20:06:49.264Z,1.80
2019-01-30T20:09:17.600Z,1.70
2019-01-30T20:11:44.802Z,1.80
2019-01-30T20:14:12.205Z,1.70
2019-01-30T20:16:39.509Z,1.60
2019-01-30T20:19:06.508Z,1.50
2019-01-30T20:21:33.538Z,1.50
2019-01-30T20:24:00.549Z,1.50
2019-01-30T20:26:27.666Z,1.40
2019-01-30T20:28:54.697Z,1.40
2019-01-30T20:31:21.841Z,1.40
2019-01-30T20:33:48.717Z,1.40
2019-01-30T20:36:15.566Z,1.40
2019-01-30T20:38:42.836Z,1.40
2019-01-30T20:41:09.839Z,1.50
2019-01-30T20:43:36.873Z,1.50
2019-01-30T20:46:03.901Z,1.60
2019-01-30T20:48:30.965Z,1.50
2019-01-30T20:50:58.013Z,1.50
2019-01-30T20:53:24.925Z,1.40
2019-01-30T20:55:51.801Z,1.50
2019-01-30T20:58:18.636Z,1.40
2019-01-30T21:00:45.642Z,1.30
2019-01-30T21:03:12.730Z,1.40
2019-01-30T21:05:39.725Z,1.30
2019-01-30T21:08:08.441Z,1.20
2019-01-30T21:10:37.611Z,1.30
2019-01-30T21:13:05.638Z,1.20
2019-01-30T21:15:32.542Z,1.30
2019-01-30T21:17:59.624Z,1.30
2019-01-30T21:20:26.530Z,1.30
2019-01-30T21:22:53.729Z,1.30
2019-01-30T21:25:21.022Z,1.30
2019-01-30T21:27:48.074Z,1.30
2019-01-30T21:30:20.520Z,1.30
2019-01-30T21:32:48.837Z,1.30
2019-01-30T21:35:16.289Z,1.30
2019-01-30T21:37:49.007Z,1.30
2019-01-30T21:40:14.056Z,1.30
2019-01-30T21:42:42.599Z,1.30
2019-01-30T21:45:12.458Z,1.30
2019-01-30T21:47:39.643Z,1.20
2019-01-30T21:50:07.068Z,1.20
2019-01-30T21:52:33.984Z,1.20
2019-01-30T21:55:01.158Z,1.30
2019-01-30T21:57:28.410Z,1.20
2019-01-30T21:59:55.745Z,1.20
2019-01-30T22:02:22.988Z,1.10
2019-01-30T22:04:49.909Z,1.10
2019-01-30T22:07:16.714Z,1.00
2019-01-30T22:09:43.531Z,1.10
2019-01-30T22:12:10.908Z,1.10
2019-01-30T22:14:38.156Z,1.00
2019-01-30T22:17:05.512Z,1.00
2019-01-30T22:19:32.312Z,1.00
2019-01-30T22:21:59.505Z,1.00
2019-01-30T22:24:27.366Z,0.90
2019-01-30T22:26:54.435Z,1.00
2019-01-30T22:29:21.350Z,0.90
2019-01-30T22:31:48.359Z,1.00
2019-01-30T22:34:15.182Z,1.00
2019-01-30T22:36:42.245Z,1.00
2019-01-30T22:39:09.446Z,1.00
2019-01-30T22:41:36.674Z,1.00
2019-01-30T22:44:04.066Z,1.00
2019-01-30T22:46:31.360Z,1.00
2019-01-30T22:48:58.718Z,1.00
2019-01-30T22:51:25.864Z,1.00
2019-01-30T22:53:52.945Z,1.00
2019-01-30T22:56:19.863Z,1.00
2019-01-30T22:58:46.970Z,0.90
2019-01-30T23:01:23.965Z,0.90
2019-01-30T23:04:36.314Z,1.00
2019-01-30T23:07:32.902Z,0.90
2019-01-30T23:10:36.273Z,0.90
2019-01-30T23:13:52.954Z,0.90
2019-01-30T23:17:00.360Z,0.80
2019-01-30T23:19:57.236Z,0.70
2019-01-30T23:23:08.328Z,0.70
2019-01-30T23:26:01.592Z,0.70
2019-01-30T23:29:06.450Z,0.60
2019-01-30T23:32:08.834Z,0.70
2019-01-30T23:35:26.261Z,0.70
2019-01-30T23:38:34.111Z,0.70
2019-01-30T23:41:15.356Z,0.70
2019-01-30T23:44:28.585Z,0.50
2019-01-30T23:47:55.289Z,0.60
2019-01-30T23:50:48.045Z,0.70
2019-01-30T23:54:15.180Z,0.70
2019-01-30T23:57:31.796Z,0.90
